Buoy 51659

sailwx.info

Track history (hours):
 
Tides and Currents Weather Stations Pressure Air Temp Water Temp Dewpoint Dewpoint Depression Visibility Wind Speed Wind Dir Waves Ship Positions

Drifting buoy 51659

Last reported at 2016-Aug-23 21:00 UTC. Time now 2016-Aug-24 02:41 UTC.
Position S 09°36' W 175°41'.

Water temperature 29.1 ° C

Date/timePositionNaut miles runAvg speedWind from/ knotsBaromVisibWave heightAir tempDewpointWater temp
2016-Aug-23 21:00S 09°36' W 175°41'0 0.0 29.1
2016-Aug-23 20:00S 09°36' W 175°41'2 1.8 29.0
2016-Aug-23 19:00S 09°37' W 175°40'0 0.0 29.0
2016-Aug-23 18:00S 09°37' W 175°40'0 0.3 29.0
2016-Aug-23 17:00S 09°37' W 175°40'2 2.4 29.0
2016-Aug-23 16:00S 09°40' W 175°40'0 0.0 29.0
2016-Aug-23 15:00S 09°40' W 175°40'0 0.0 29.1
2016-Aug-23 14:00S 09°40' W 175°40'2 2.1 29.1
2016-Aug-23 13:00S 09°42' W 175°40'0 0.0 29.1
2016-Aug-23 10:00S 09°42' W 175°40'0 0.2 29.1
2016-Aug-23 08:00S 09°42' W 175°40'1 0.7 29.1
2016-Aug-23 07:00S 09°43' W 175°40'1 0.7 29.1
2016-Aug-23 06:00S 09°44' W 175°40'1 0.6 29.1
2016-Aug-23 05:00S 09°44' W 175°39'0 0.0 29.2
2016-Aug-23 04:00S 09°44' W 175°39'3 1.7 29.2
2016-Aug-23 02:00S 09°47' W 175°40'0 0.0 29.2
2016-Aug-22 21:00S 09°48' W 175°40'0 0.1 29.1
2016-Aug-22 20:00S 09°48' W 175°40'2 0.5 29.1
2016-Aug-22 17:00S 09°49' W 175°40'0 0.5 29.0
2016-Aug-22 16:00S 09°50' W 175°40'1 0.6 29.0
2016-Aug-22 14:00S 09°51' W 175°41'1 1.3 29.0
2016-Aug-22 13:00S 09°50' W 175°40'1 0.3 29.0
2016-Aug-22 09:00S 09°50' W 175°41'1 1.0 29.1
2016-Aug-22 08:00S 09°50' W 175°42'0 0.0 29.1
2016-Aug-22 07:00S 09°50' W 175°42'1 0.4 29.1
2016-Aug-22 05:00S 09°50' W 175°41'0 0.4 29.1
2016-Aug-22 04:00S 09°49' W 175°41'0 0.3 29.1
2016-Aug-22 03:00S 09°50' W 175°40'1 0.5 29.2
2016-Aug-22 01:00S 09°50' W 175°39'0 0.0 29.1
2016-Aug-21 22:00S 09°50' W 175°39'0 0.2 29.1
2016-Aug-21 20:00S 09°50' W 175°39'0 0.1 29.0
2016-Aug-21 18:00S 09°50' W 175°39'1 0.9 29.0
2016-Aug-21 17:00S 09°49' W 175°38'1 0.7 29.0
2016-Aug-21 16:00S 09°49' W 175°38'2 1.1 29.0
2016-Aug-21 14:00S 09°50' W 175°36'1 0.1 29.1
2016-Aug-21 09:00S 09°50' W 175°36'1 0.6 29.2
2016-Aug-21 08:00S 09°50' W 175°36'1 0.3 29.2
2016-Aug-21 05:00S 09°50' W 175°35'1 0.6 29.4
2016-Aug-21 04:00S 09°51' W 175°34'0 0.2 29.4
2016-Aug-21 03:00S 09°51' W 175°34'1 0.5 29.5
2016-Aug-21 01:00S 09°52' W 175°34'3 0.4 29.5
2016-Aug-20 17:00S 09°55' W 175°35'0 0.0 29.1
2016-Aug-20 16:00S 09°55' W 175°35'2 1.2 29.0
2016-Aug-20 14:00S 09°57' W 175°35'0 0.0 29.1
2016-Aug-20 10:00S 09°57' W 175°35'1 0.6 29.2
2016-Aug-20 08:00S 09°58' W 175°36'0 0.2 29.2
2016-Aug-20 06:00S 09°58' W 175°36'1 0.7 29.3
2016-Aug-20 05:00S 09°58' W 175°35'0 0.5 29.4
2016-Aug-20 04:00S 09°58' W 175°36'0 0.2 29.5
2016-Aug-20 03:00S 09°58' W 175°35'0 0.2 29.7
2016-Aug-20 01:00S 09°59' W 175°35'2 0.5 29.7
2016-Aug-19 21:00S 10°00' W 175°35'3 0.3 29.1
2016-Aug-19 10:00S 10°04' W 175°36'1 0.8 29.2
2016-Aug-19 09:00S 10°04' W 175°36'0 0.0 29.3
2016-Aug-19 08:00S 10°04' W 175°36'0 0.1 29.3
2016-Aug-19 06:00S 10°05' W 175°36'0 0.1 29.4
2016-Aug-19 05:00S 10°05' W 175°36'1 0.3 29.5
2016-Aug-19 03:00S 10°05' W 175°36'1 0.3 29.6
2016-Aug-19 01:00S 10°06' W 175°36'1 0.3 29.9
2016-Aug-18 21:00S 10°06' W 175°35'0 0.1 29.0
2016-Aug-18 20:00S 10°06' W 175°36'1 0.6 29.0
2016-Aug-18 18:00S 10°08' W 175°36'2 0.8 29.0
2016-Aug-18 16:00S 10°09' W 175°36'0 0.1 29.0
2016-Aug-18 13:00S 10°10' W 175°36'1 0.3 29.0
2016-Aug-18 08:00S 10°11' W 175°35'2 0.4 29.0
2016-Aug-18 04:00S 10°12' W 175°34'0 0.0 29.2
2016-Aug-18 03:00S 10°12' W 175°34'1 1.1 29.3
2016-Aug-18 02:00S 10°13' W 175°34'2 0.3 29.3
2016-Aug-17 20:00S 10°14' W 175°33'1 0.5 29.0
2016-Aug-17 18:00S 10°15' W 175°32'1 0.6 29.0
2016-Aug-17 17:00S 10°15' W 175°32'1 0.7 29.0
2016-Aug-17 16:00S 10°16' W 175°32'1 0.3 29.0
2016-Aug-17 13:00S 10°17' W 175°31'1 0.3 29.0
2016-Aug-17 09:00S 10°18' W 175°31'1 0.8 29.1
2016-Aug-17 08:00S 10°18' W 175°30'1 0.3 29.1
2016-Aug-17 06:00S 10°18' W 175°31'1 1.0 29.2
2016-Aug-17 05:00S 10°19' W 175°30'1 0.7 29.3
2016-Aug-17 04:00S 10°19' W 175°30'1 0.3 29.4
2016-Aug-17 02:00S 10°20' W 175°30'0 0.0 29.5
2016-Aug-17 01:00S 10°20' W 175°30'1 0.4 29.4
2016-Aug-16 22:00S 10°21' W 175°30'0 0.1 29.0
2016-Aug-16 20:00S 10°21' W 175°30'1 0.3 28.9
2016-Aug-16 17:00S 10°21' W 175°29'0 0.0 28.9
2016-Aug-16 16:00S 10°21' W 175°29'2 0.3 28.9
2016-Aug-16 09:00S 10°23' W 175°30'0 0.1 29.0
2016-Aug-16 08:00S 10°23' W 175°30'1 0.3 29.0
2016-Aug-16 06:00S 10°23' W 175°30'1 0.5 29.0
2016-Aug-16 05:00S 10°23' W 175°29'0 0.4 29.1
2016-Aug-16 04:00S 10°23' W 175°30'1 0.3 29.2
2016-Aug-16 02:00S 10°23' W 175°30'1 0.2 29.2
2016-Aug-15 20:00S 10°23' W 175°29'1 1.0 28.9
2016-Aug-15 19:00S 10°24' W 175°29'1 0.5 28.9
2016-Aug-15 18:00S 10°25' W 175°30'2 0.3 28.9
2016-Aug-15 13:00S 10°26' W 175°30'0 0.1 28.9
2016-Aug-15 09:00S 10°26' W 175°29'0 0.2 29.0
2016-Aug-15 08:00S 10°26' W 175°29'0 0.0 29.0
2016-Aug-15 07:00S 10°26' W 175°29'0 0.2 29.0
2016-Aug-15 06:00S 10°27' W 175°29'0 0.3 29.0
2016-Aug-15 05:00S 10°27' W 175°29'0 0.0 29.0
2016-Aug-15 04:00S 10°27' W 175°29'0 0.1 29.0
2016-Aug-15 02:00S 10°27' W 175°29'0 0.1 29.1
2016-Aug-14 21:00S 10°27' W 175°29'0 0.4 29.0
2016-Aug-14 20:00S 10°27' W 175°29'1 0.7 29.0
2016-Aug-14 18:00S 10°28' W 175°28'0 0.3 29.0
2016-Aug-14 17:00S 10°28' W 175°28'1 0.6 29.0
2016-Aug-14 16:00S 10°28' W 175°28'1 0.3 29.0
2016-Aug-14 14:00S 10°28' W 175°28'0 0.0 29.0
2016-Aug-14 13:00S 10°28' W 175°28'0 0.1 29.0
2016-Aug-14 10:00S 10°28' W 175°28'1 0.6 29.1
2016-Aug-14 09:00S 10°29' W 175°27'0 0.0 29.1
2016-Aug-14 08:00S 10°29' W 175°27'1 1.1 29.1
2016-Aug-14 07:00S 10°28' W 175°27'1 1.1 29.1
2016-Aug-14 06:00S 10°28' W 175°26'0 0.0 29.1
2016-Aug-14 05:00S 10°28' W 175°26'1 1.1 29.1
2016-Aug-14 04:00S 10°29' W 175°25'0 0.0 29.1
2016-Aug-14 03:00S 10°29' W 175°25'1 1.4 29.1
2016-Aug-14 02:00S 10°30' W 175°24'0 0.1 29.1
2016-Aug-13 21:00S 10°30' W 175°25'   28.9
Track history (hours):
 
Tides and Currents Weather Stations Pressure Air Temp Water Temp Dewpoint Dewpoint Depression Visibility Wind Speed Wind Dir Waves Ship Positions

Drifting buoy 51659

Last reported at 2016-Aug-23 21:00 UTC. Time now 2016-Aug-24 02:41 UTC.
Position S 09°36' W 175°41'.

Water temperature 29.1 ° C

Date/timePositionNaut miles runAvg speedWind from/ knotsBaromVisibWave heightAir tempDewpointWater temp
2016-Aug-23 21:00S 09°36' W 175°41'0 0.0 29.1
2016-Aug-23 20:00S 09°36' W 175°41'2 1.8 29.0
2016-Aug-23 19:00S 09°37' W 175°40'0 0.0 29.0
2016-Aug-23 18:00S 09°37' W 175°40'0 0.3 29.0
2016-Aug-23 17:00S 09°37' W 175°40'2 2.4 29.0
2016-Aug-23 16:00S 09°40' W 175°40'0 0.0 29.0
2016-Aug-23 15:00S 09°40' W 175°40'0 0.0 29.1
2016-Aug-23 14:00S 09°40' W 175°40'2 2.1 29.1
2016-Aug-23 13:00S 09°42' W 175°40'0 0.0 29.1
2016-Aug-23 10:00S 09°42' W 175°40'0 0.2 29.1
2016-Aug-23 08:00S 09°42' W 175°40'1 0.7 29.1
2016-Aug-23 07:00S 09°43' W 175°40'1 0.7 29.1
2016-Aug-23 06:00S 09°44' W 175°40'1 0.6 29.1
2016-Aug-23 05:00S 09°44' W 175°39'0 0.0 29.2
2016-Aug-23 04:00S 09°44' W 175°39'3 1.7 29.2
2016-Aug-23 02:00S 09°47' W 175°40'0 0.0 29.2
2016-Aug-22 21:00S 09°48' W 175°40'0 0.1 29.1
2016-Aug-22 20:00S 09°48' W 175°40'2 0.5 29.1
2016-Aug-22 17:00S 09°49' W 175°40'0 0.5 29.0
2016-Aug-22 16:00S 09°50' W 175°40'1 0.6 29.0
2016-Aug-22 14:00S 09°51' W 175°41'1 1.3 29.0
2016-Aug-22 13:00S 09°50' W 175°40'1 0.3 29.0
2016-Aug-22 09:00S 09°50' W 175°41'1 1.0 29.1
2016-Aug-22 08:00S 09°50' W 175°42'0 0.0 29.1
2016-Aug-22 07:00S 09°50' W 175°42'1 0.4 29.1
2016-Aug-22 05:00S 09°50' W 175°41'0 0.4 29.1
2016-Aug-22 04:00S 09°49' W 175°41'0 0.3 29.1
2016-Aug-22 03:00S 09°50' W 175°40'1 0.5 29.2
2016-Aug-22 01:00S 09°50' W 175°39'0 0.0 29.1
2016-Aug-21 22:00S 09°50' W 175°39'0 0.2 29.1
2016-Aug-21 20:00S 09°50' W 175°39'0 0.1 29.0
2016-Aug-21 18:00S 09°50' W 175°39'1 0.9 29.0
2016-Aug-21 17:00S 09°49' W 175°38'1 0.7 29.0
2016-Aug-21 16:00S 09°49' W 175°38'2 1.1 29.0
2016-Aug-21 14:00S 09°50' W 175°36'1 0.1 29.1
2016-Aug-21 09:00S 09°50' W 175°36'1 0.6 29.2
2016-Aug-21 08:00S 09°50' W 175°36'1 0.3 29.2
2016-Aug-21 05:00S 09°50' W 175°35'1 0.6 29.4
2016-Aug-21 04:00S 09°51' W 175°34'0 0.2 29.4
2016-Aug-21 03:00S 09°51' W 175°34'1 0.5 29.5
2016-Aug-21 01:00S 09°52' W 175°34'3 0.4 29.5
2016-Aug-20 17:00S 09°55' W 175°35'0 0.0 29.1
2016-Aug-20 16:00S 09°55' W 175°35'2 1.2 29.0
2016-Aug-20 14:00S 09°57' W 175°35'0 0.0 29.1
2016-Aug-20 10:00S 09°57' W 175°35'1 0.6 29.2
2016-Aug-20 08:00S 09°58' W 175°36'0 0.2 29.2
2016-Aug-20 06:00S 09°58' W 175°36'1 0.7 29.3
2016-Aug-20 05:00S 09°58' W 175°35'0 0.5 29.4
2016-Aug-20 04:00S 09°58' W 175°36'0 0.2 29.5
2016-Aug-20 03:00S 09°58' W 175°35'0 0.2 29.7
2016-Aug-20 01:00S 09°59' W 175°35'2 0.5 29.7
2016-Aug-19 21:00S 10°00' W 175°35'3 0.3 29.1
2016-Aug-19 10:00S 10°04' W 175°36'1 0.8 29.2
2016-Aug-19 09:00S 10°04' W 175°36'0 0.0 29.3
2016-Aug-19 08:00S 10°04' W 175°36'0 0.1 29.3
2016-Aug-19 06:00S 10°05' W 175°36'0 0.1 29.4
2016-Aug-19 05:00S 10°05' W 175°36'1 0.3 29.5
2016-Aug-19 03:00S 10°05' W 175°36'1 0.3 29.6
2016-Aug-19 01:00S 10°06' W 175°36'1 0.3 29.9
2016-Aug-18 21:00S 10°06' W 175°35'0 0.1 29.0
2016-Aug-18 20:00S 10°06' W 175°36'1 0.6 29.0
2016-Aug-18 18:00S 10°08' W 175°36'2 0.8 29.0
2016-Aug-18 16:00S 10°09' W 175°36'0 0.1 29.0
2016-Aug-18 13:00S 10°10' W 175°36'1 0.3 29.0
2016-Aug-18 08:00S 10°11' W 175°35'2 0.4 29.0
2016-Aug-18 04:00S 10°12' W 175°34'0 0.0 29.2
2016-Aug-18 03:00S 10°12' W 175°34'1 1.1 29.3
2016-Aug-18 02:00S 10°13' W 175°34'2 0.3 29.3
2016-Aug-17 20:00S 10°14' W 175°33'1 0.5 29.0
2016-Aug-17 18:00S 10°15' W 175°32'1 0.6 29.0
2016-Aug-17 17:00S 10°15' W 175°32'1 0.7 29.0
2016-Aug-17 16:00S 10°16' W 175°32'1 0.3 29.0
2016-Aug-17 13:00S 10°17' W 175°31'1 0.3 29.0
2016-Aug-17 09:00S 10°18' W 175°31'1 0.8 29.1
2016-Aug-17 08:00S 10°18' W 175°30'1 0.3 29.1
2016-Aug-17 06:00S 10°18' W 175°31'1 1.0 29.2
2016-Aug-17 05:00S 10°19' W 175°30'1 0.7 29.3
2016-Aug-17 04:00S 10°19' W 175°30'1 0.3 29.4
2016-Aug-17 02:00S 10°20' W 175°30'0 0.0 29.5
2016-Aug-17 01:00S 10°20' W 175°30'1 0.4 29.4
2016-Aug-16 22:00S 10°21' W 175°30'0 0.1 29.0
2016-Aug-16 20:00S 10°21' W 175°30'1 0.3 28.9
2016-Aug-16 17:00S 10°21' W 175°29'0 0.0 28.9
2016-Aug-16 16:00S 10°21' W 175°29'2 0.3 28.9
2016-Aug-16 09:00S 10°23' W 175°30'0 0.1 29.0
2016-Aug-16 08:00S 10°23' W 175°30'1 0.3 29.0
2016-Aug-16 06:00S 10°23' W 175°30'1 0.5 29.0
2016-Aug-16 05:00S 10°23' W 175°29'0 0.4 29.1
2016-Aug-16 04:00S 10°23' W 175°30'1 0.3 29.2
2016-Aug-16 02:00S 10°23' W 175°30'1 0.2 29.2
2016-Aug-15 20:00S 10°23' W 175°29'1 1.0 28.9
2016-Aug-15 19:00S 10°24' W 175°29'1 0.5 28.9
2016-Aug-15 18:00S 10°25' W 175°30'2 0.3 28.9
2016-Aug-15 13:00S 10°26' W 175°30'0 0.1 28.9
2016-Aug-15 09:00S 10°26' W 175°29'0 0.2 29.0
2016-Aug-15 08:00S 10°26' W 175°29'0 0.0 29.0
2016-Aug-15 07:00S 10°26' W 175°29'0 0.2 29.0
2016-Aug-15 06:00S 10°27' W 175°29'0 0.3 29.0
2016-Aug-15 05:00S 10°27' W 175°29'0 0.0 29.0
2016-Aug-15 04:00S 10°27' W 175°29'0 0.1 29.0
2016-Aug-15 02:00S 10°27' W 175°29'0 0.1 29.1
2016-Aug-14 21:00S 10°27' W 175°29'0 0.4 29.0
2016-Aug-14 20:00S 10°27' W 175°29'1 0.7 29.0
2016-Aug-14 18:00S 10°28' W 175°28'0 0.3 29.0
2016-Aug-14 17:00S 10°28' W 175°28'1 0.6 29.0
2016-Aug-14 16:00S 10°28' W 175°28'1 0.3 29.0
2016-Aug-14 14:00S 10°28' W 175°28'0 0.0 29.0
2016-Aug-14 13:00S 10°28' W 175°28'0 0.1 29.0
2016-Aug-14 10:00S 10°28' W 175°28'1 0.6 29.1
2016-Aug-14 09:00S 10°29' W 175°27'0 0.0 29.1
2016-Aug-14 08:00S 10°29' W 175°27'1 1.1 29.1
2016-Aug-14 07:00S 10°28' W 175°27'1 1.1 29.1
2016-Aug-14 06:00S 10°28' W 175°26'0 0.0 29.1
2016-Aug-14 05:00S 10°28' W 175°26'1 1.1 29.1
2016-Aug-14 04:00S 10°29' W 175°25'0 0.0 29.1
2016-Aug-14 03:00S 10°29' W 175°25'1 1.4 29.1
2016-Aug-14 02:00S 10°30' W 175°24'0 0.1 29.1
2016-Aug-13 21:00S 10°30' W 175°25'   28.9

Dump ship's entire track history